Latest Observation

65 Stations

10 Minute Data
as of 5/3/26 12:20 AM PDT
Station Date Time Temp (°F) RH (%) Dew Pt (°F) Wind Spd (mph) Wind Dir (°) Wind Gust (mph) Wind Gst Dir (°) Latest Rain (In) Soil Moist (%) Soil Temp (°F) Daily Rain (In) Daily Min Temp (°F) Daily Max Temp (°F) Daily Max Wind (mph)
Hobart Mills 5/3/26 0020 41.2   1.6 99   23 40.9   5.1 0.0   1.3 N | 0 0.0   2.5 W | 270 0.00 - 32.0   0.0 0.07 35.0   5.7 63.0   3.9 14.0   2.4
Prosser Dam 5/3/26 0020 42.6   2.2 97   14 41.8   1.7 2.1   0.7 SW | 222 4.0   1.4 SW | 223 0.00 21.0   0.3 49.4   1.3 0.10 33.6   6.0 64.5   3.0 17.3   2.7
West Incline Village 5/3/26 0020 45.8   3.9 73   42 37.6   17.0 2.6   0.2 NNE | 23 5.1   1.7 ENE | 69 0.00 30.7   0.2 44.7   0.5 0.11 41.9   0.7 57.2   4.0 12.8   2.1
Incline Village (Fairview Blvd) 5/3/26 0020 49.7   1.9 59   34 35.8   19.4 0.8   0.6 NW | 309 4.0   2.9 N | 354 0.00 24.2   0.1 52.2   0.8 0.11 44.3   0.4 58.6   5.6 9.9   2.5
Incline Village (Diamond Peak) 5/3/26 0020 47.9   1.9 58   29 33.9   14.7 4.5   4.5 ENE | 68 10.3   10.3 ENE | 60 0.00 8.5   0.1 46.0   0.2 0.00 45.2   1.4 56.0   2.6 13.8   4.6
Incline Village (Mill Creek) 5/3/26 0020 51.4   3.0 54   15 35.5   10.7 2.4   2.4 ENE | 60 14.0   14.0 NNW | 344 0.00 9.8   0.1 45.8   0.9 0.05 44.0   1.5 60.6   3.9 14.0   2.4
Incline Village (Lakeshore Blvd) 5/3/26 0020 51.8   7.1 62   4 39.1   8.2 0.4   0.5 NE | 38 2.1   0.5 ENE | 66 0.00 33.7   2.9 52.6   0.7 0.08 39.6   3.7 61.2   1.5 15.4   3.8
Glenbrook 5/3/26 0020 48.7   3.4 82   23 43.4   11.8 0.6   0.5 NNE | 13 2.6   0.9 NNW | 331 0.00 44.3   0.0 45.0   0.2 0.00 40.3   3.0 61.1   3.3 21.2   3.0
Zephyr Cove 5/3/26 0020 48.8   0.2 68   8 38.6   3.5 0.0   0.0 N | 0 0.0   0.0 NW | 314 0.00 - 34.3   0.0 0.00 43.1   13.7 62.8   0.7 4.6   2.7
Kingsbury Grade 5/3/26 0020 49.8   4.6 59   12 35.9   9.7 4.7   2.8 E | 96 12.2   8.8 ESE | 112 0.00 5.4   0.6 56.0   1.0 0.00 41.8   4.5 61.6   0.0 16.8   1.6
South Daggett Pass (Ridge) 5/3/26 0020 46.8   1.4 64   14 35.3   4.6 5.5   5.4 SE | 130 9.4   8.2 SE | 131 0.00 6.6   0.0 48.8   0.7 0.00 44.9   1.8 58.0   0.8 18.9   2.2
Palomino Valley 5/3/26 0020 53.5   0.4 72   51 44.8   29.3 1.1   1.1 SE | 130 3.6   3.6 SE | 135 0.00 6.8   0.0 64.3   1.5 0.00 41.8   7.8 73.7   0.5 28.7   2.9
East Cold Springs 5/3/26 0020 49.0   6.8 77   45 42.0   15.5 5.0   0.5 WNW | 290 6.5   0.0 W | 278 0.00 1.5   0.0 56.1   1.4 0.07 48.1   2.5 66.0   3.0 18.6   7.4
Peavine 5/3/26 0020 48.4   4.3 72   45 39.9   19.9 4.5   1.1 SSW | 192 8.4   0.4 SSW | 212 0.00 - 53.4   0.0 0.02 45.3   1.1 63.5   2.6 22.5   4.6
West Verdi Peak 5/2/26 2310 47.1   5.5 74   23 39.2   4.1 0.5   0.4 NW | 304 1.4   1.2 WNW | 298 0.00 16.6   0.5 51.5   1.5 0.02 44.5   4.2 61.4   4.6 16.0   1.1
West Verdi 5/3/26 0020 49.2   5.5 80   29 43.4   6.3 3.7   0.7 WNW | 298 7.5   0.0 NW | 304 0.00 7.9   0.1 61.3   2.2 0.00 46.7   7.5 67.2   3.1 19.5   2.5
South Verdi 5/3/26 0020 52.4   5.4 63   16 40.0   2.8 5.4   6.3 WSW | 248 9.6   5.3 WSW | 248 0.00 16.6   0.6 58.9   3.7 0.04 45.8   2.8 66.0   1.1 24.5   4.8
Northwest Reno 5/3/26 0020 54.7   6.0 61   39 41.3   20.1 4.0   1.4 ENE | 63 7.2   1.9 WNW | 299 0.00 24.3   0.3 63.4   2.0 0.04 51.6   5.2 68.3   2.6 28.4   3.1
North Lawton 5/3/26 0020 50.5   8.5 76   31 43.1   5.5 5.2   1.6 NW | 317 10.7   1.6 W | 272 0.00 - 39.1   0.0 0.03 49.5   8.1 67.5   2.8 18.9   2.2
West Reno (Mogul) 5/3/26 0020 50.0   6.4 79   36 43.7   9.8 6.4   2.1 WSW | 252 11.4   4.6 WNW | 294 0.00 38.9   0.1 61.3   0.2 0.02 48.8   5.8 68.2   1.0 28.1   4.8
Caughlin (Hunter Lake Trail) 9/16/25 0800 59.7   3.5 41   11 35.9   2.7 0.0   0.0 N | 0 0.0   0.0 ENE | 66 0.00 15.7   0.0 69.8   0.5 0.00 55.7   3.2 67.7   9.1 9.4   0.9
ArrowCreek 5/3/26 0020 55.4   2.8 57   34 40.4   20.3 7.7   7.1 W | 263 11.2   8.3 W | 265 0.00 - 32.0   0.0 0.01 48.9   4.6 68.2   2.2 28.9   12.6
Tracy 5/3/26 0020 56.3   4.1 65   44 44.8   24.2 5.6   2.3 SSW | 211 7.5   3.1 SSW | 193 0.00 8.0   0.0 63.9   0.6 0.00 48.0   4.7 74.1   0.2 23.2   3.1
Virginia Highlands 5/3/26 0020 50.3   6.4 65   45 38.9   22.8 0.0   2.7 N | 0 0.0   5.8 SSW | 204 0.00 7.2   0.0 57.2   0.7 0.03 48.0   1.2 65.2   0.6 28.2   10.7
Virginia City 5/3/26 0020 51.8   4.5 55   35 36.2   20.2 2.3   0.2 SSE | 147 7.3   3.7 SE | 138 0.00 8.5   0.2 55.7   1.3 0.00 51.0   3.5 64.1   1.4 37.1   21.4
Six Mile Canyon 9/9/25 0630 60.2   9.6 37   6 33.7   4.8 4.1   2.5 W | 277 6.1   2.9 WNW | 286 0.00 12.5   0.0 75.5   0.7 0.00 57.9   7.6 64.4   1.9 7.0   3.9
Mt Rose Highway 4/30/26 0510 40.8   4.7 47   13 22.3   1.3 2.3   0.2 WSW | 243 4.8   2.1 WSW | 246 0.00 24.1   0.3 43.0   0.8 0.00 40.5   4.7 43.0   5.3 7.7   0.4
Pleasant Valley 5/3/26 0020 53.3   0.4 68   34 42.8   17.1 6.3   4.2 W | 263 12.5   9.2 SSE | 168 0.00 2.8   0.0 63.8   1.2 0.05 46.0   4.7 68.9   3.0 25.5   10.9
New Washoe City 5/3/26 0020 50.9   2.7 76   52 43.8   25.8 0.8   3.8 SE | 139 5.0   1.5 SE | 143 0.00 4.5   0.1 59.2   0.3 0.01 46.1   5.3 67.5   2.6 28.2   9.2
Franktown Creek 5/3/26 0020 48.5   3.1 92   56 46.1   21.0 0.9   0.8 WSW | 254 3.1   2.0 WSW | 246 0.00 11.2   0.1 56.6   0.2 0.02 45.2   6.6 67.4   2.5 23.0   12.8
Musgrove Creek 5/3/26 0020 49.4   5.0 74   51 41.6   23.6 2.2   1.8 WSW | 254 3.7   1.9 W | 262 0.00 39.4   0.3 52.6   0.5 0.04 47.8   1.1 64.5   2.3 12.7   1.6
East Carson 11/23/24 0110 28.6   28.4 - - 4.7   11.0 SW | 220 14.7   10.1 SW | 219 0.02 - 50.9   0.1 0.02 -25.9   79.1 42.9   14.6 16.0   10.7
Kings Canyon 5/3/26 0020 51.2   2.6 73   46 42.9   22.2 2.9   1.3 SSW | 196 5.6   1.5 SW | 219 0.01 15.5   0.0 59.4   2.1 0.02 45.8   5.5 67.9   1.0 22.5   7.6
Carson City (Voltaire Canyon) 5/3/26 0020 54.9   6.6 62   44 42.2   24.7 8.4   7.6 WNW | 291 13.0   10.4 WNW | 302 0.00 2.8   0.0 62.6   0.7 0.00 50.9   3.5 70.0   0.2 28.1   12.3
Jacks Valley 5/3/26 0020 51.8   2.5 72   43 43.1   20.5 3.6   2.9 WSW | 255 6.8   5.1 SSE | 158 0.00 9.8   0.4 65.0   3.8 0.01 47.0   3.4 69.0   0.5 25.5   6.3
Genoa 5/3/26 0020 53.2   3.6 72   42 44.4   18.8 0.0   0.0 SSW | 211 0.1   0.1 SW | 214 0.00 5.7   0.1 61.4   0.9 0.01 47.6   5.1 71.9   0.7 10.7   1.0
South Genoa (Walleys Hot Springs) 5/3/26 0020 55.7   2.5 64   17 43.8   10.4 0.5   0.5 SW | 227 2.6   2.6 SW | 216 0.00 13.7   0.1 64.7   0.4 0.00 42.9   5.9 72.1   0.2 21.6   5.7
SW Gardnerville (HWY 88) 5/3/26 0020 54.0   2.6 68   7 43.7   5.4 0.9   0.3 ENE | 62 4.0   1.9 ENE | 59 0.00 3.3   0.1 59.0   0.4 0.01 42.1   8.3 70.6   0.0 25.3   12.4
Sheridan 5/3/26 0020 53.9   0.2 65   25 42.6   12.3 3.0   0.5 S | 180 5.2   1.6 SSW | 206 0.00 2.4   0.1 61.2   1.7 0.00 45.8   6.2 72.1   1.2 23.6   9.7
Ruhenstroth 5/3/26 0020 52.0   3.4 69   32 42.3   12.5 1.2   2.6 ESE | 119 2.7   4.5 SE | 124 0.00 12.9   0.3 60.5   2.4 0.00 45.0   5.5 70.7   1.2 22.4   5.6
Double Spring 5/3/26 0020 46.1   5.7 82   52 40.8   19.4 2.6   1.6 NNW | 337 5.1   0.4 NW | 316 0.00 28.8   0.3 58.9   2.6 0.12 39.6   9.0 65.6   1.7 21.0   2.7
North Topaz Lake 5/3/26 0020 54.5   3.4 57   35 39.8   20.1 10.2   3.3 W | 270 13.5   4.7 W | 268 0.00 9.0   0.2 59.7   3.3 0.05 51.6   3.7 67.9   1.0 22.1   4.7
Wild Oat Mountain 5/3/26 0020 50.0   5.2 67   40 39.4   18.0 5.8   2.8 NNW | 335 9.3   5.2 NNW | 337 0.00 16.7   0.1 60.8   1.3 0.00 49.7   3.5 65.6   2.6 24.2   5.6
Smith Valley 5/3/26 0020 59.3   0.3 44   25 37.4   20.3 4.7   1.0 WNW | 295 7.2   1.5 WNW | 285 0.00 6.0   0.0 63.3   1.6 0.00 45.6   2.8 72.5   0.4 20.2   5.8
Pine Grove Mountain 5/3/26 0020 45.9   2.0 53   31 29.7   19.1 6.5   4.8 ENE | 63 9.9   6.6 ENE | 57 0.00 14.5   0.0 52.6   1.7 0.02 44.7   3.2 58.7   1.6 24.5   4.3
Paradise Hill 5/3/26 0020 56.7   7.7 35   6 29.1   11.2 6.7   3.9 N | 7 12.2   6.2 N | 351 0.00 8.0   0.1 59.3   0.2 0.00 38.9   0.3 74.6   2.8 19.9   0.6
Winnemucca 5/3/26 0020 58.2   6.8 40   13 33.7   15.5 5.6   1.0 SSE | 159 7.6   2.2 S | 176 0.00 6.0   0.0 58.9   0.7 0.00 41.1   2.6 75.7   4.1 20.0   1.6
NE Elko 5/3/26 0020 48.0   7.7 28   5 16.2   2.9 0.3   0.3 E | 90 1.9   1.7 E | 87 0.00 12.5   0.0 60.0   0.0 0.00 28.6   5.3 71.9   3.8 16.8   0.1
North Elko 5/3/26 0020 58.8   10.5 17   9 14.3   0.8 4.6   3.4 NNW | 343 5.2   2.9 NNW | 344 0.00 28.5   0.0 56.8   0.8 0.00 42.5   0.8 69.7   4.6 18.4   0.4
South Elko 5/3/26 0020 69.8   1.7 35   2 40.6   3.6 4.2   1.5 SE | 131 6.3   1.4 ESE | 111 0.00 19.0   0.2 57.0   0.4 0.00 46.3   2.4 - 20.1   0.5
Lamoille 1/28/26 1720 33.2   0.5 65   17 22.8   6.3 5.8   1.5 SSE | 166 7.7   1.9 SE | 139 0.00 12.2   0.0 33.4   0.1 0.02 23.5   2.0 36.5   5.9 25.6   17.4
Reid Gardner Sub 5/3/26 0020 62.7   6.3 17   2 16.3   3.1 0.1   1.7 SW | 235 1.9   2.4 WSW | 244 0.00 25.2   0.1 75.4   0.6 0.00 52.7   12.1 88.5   2.3 13.7   6.6
Corn Creek 5/3/26 0020 69.5   1.2 12   2 14.4   3.1 3.6   4.5 SSE | 166 4.6   7.9 SSE | 167 0.00 4.0   0.0 77.0   0.9 0.00 57.0   5.7 81.5   2.0 25.8   1.7
Lucky Strike 5/3/26 0020 62.9   5.6 11   5 8.2   3.3 9.1   4.3 WSW | 245 14.5   6.0 WSW | 248 0.00 4.5   0.0 69.0   0.9 0.00 54.4   0.8 68.7   0.8 25.0   7.2
Lower Angel Peak 5/3/26 0020 50.8   5.3 19   7 10.1   2.8 6.9   2.2 SE | 132 9.3   1.2 SE | 126 0.00 10.5   0.1 56.7   1.4 0.00 42.0   0.1 64.1   2.4 23.2   5.8
Angel Peak 5/3/26 0020 46.9   4.6 18   6 6.1   2.2 12.6   4.8 SSE | 167 16.0   5.0 SSE | 163 0.00 3.4   0.1 52.2   1.4 0.00 40.1   0.6 53.6   0.2 25.5   0.6
Upper Kyle Canyon 5/3/26 0020 45.1   2.9 24   6 10.7   2.8 4.6   1.1 NNW | 344 6.7   0.6 NNW | 335 0.00 13.9   0.0 55.4   2.9 0.00 37.6   0.5 58.9   3.0 18.6   2.0
Mt Charleston 5/3/26 0020 47.2   4.9 24   10 12.4   3.4 3.2   0.7 W | 263 6.5   0.1 W | 262 0.00 18.4   0.1 47.7   0.7 0.00 39.7   0.1 58.9   2.1 16.3   3.0
Mid Kyle Canyon 5/3/26 0020 49.3   4.3 24   8 13.6   3.1 11.2   1.5 WNW | 296 15.4   1.2 WNW | 298 0.00 7.1   0.0 59.9   2.5 0.00 43.0   0.4 64.0   0.2 21.4   0.5
Blue Diamond 5/3/26 0020 52.0   8.1 23   5 15.3   1.1 1.5   4.2 NW | 312 3.5   5.8 NW | 317 0.00 3.5   0.0 70.3   0.4 0.00 45.4   0.0 79.0   0.4 16.8   2.2
Artesian Sub 5/3/26 0020 71.9   2.0 16   5 23.8   7.1 0.0   2.6 N | 0 0.0   8.8 WNW | 285 0.00 13.4   0.1 73.3   0.4 0.00 63.0   1.3 88.0   1.0 13.9   1.7
North Henderson 5/3/26 0020 73.8   2.9 12   1 18.6   1.0 3.0   2.0 W | 270 5.5   7.5 WNW | 294 0.00 8.9   0.3 79.2   0.8 0.00 65.1   4.1 87.8   1.8 16.6   2.1
Sandy Valley 5/3/26 0020 75.6   0.1 12   1 19.1   1.4 6.8   10.5 ESE | 111 10.8   20.1 ESE | 110 0.00 4.7   0.0 83.2   0.8 0.00 65.2   4.5 83.9   0.1 35.0   3.5
Searchlight 5/3/26 0020 63.8   4.1 15   5 15.9   2.8 5.9   1.8 NNE | 12 7.1   2.0 NNE | 17 0.00 4.8   0.1 78.4   1.7 0.00 59.3   4.2 81.1   2.7 22.7   8.7
Laughlin 5/3/26 0020 82.3   0.9 11   0 23.5   1.7 1.4   5.7 NE | 46 7.2   2.5 NNE | 25 0.00 4.2   0.0 85.1   1.9 0.00 72.2   3.6 94.7   1.7 20.9   13.3
Max     82.3 99 46.1 12.6 - 16.0 - 0.01 44.3 85.1 0.12 72.2 94.7 37.1
Avg     53.7 54 33.4 3.8 - 6.8 - 0.00 13.1 58.3 - - - -
Min     41.2 11 6.1 0.0 - 0.0 - 0.00 1.5 32.0 0.00 28.6 53.6 4.6